Becontree, United Kingdom
Current Conditions -  °F | °C
As of 1:50 AM on Sunday 26 Oct 2014 (Local Time) from EGLC Reporting Station
Broken Clouds Broken Clouds  
Wind Chill: 13°   Ceiling: 3500
Heat Index: 13°   Visibility: 6mi
Dew Point:   Wind: 7mph
Humidity: 67%   Direction: 200°SSW
Pressure: 30.15"   Gusts: NA
Location:  51.55°N, 0.13°E
Report Text: EGLC 260050Z AUTO 20006KT 9999 BKN035/// 13/07 Q1021
Loading
Personal Weather Stations






























Interactive Weather Map
Tropical Storm Tracking
New forecast layout! Learn more

10-Day Weather Forecast

Advertisements
Track Severe Weather on mobile